sensor_id;sensor_type;location;lat;lon;timestamp;temperature;humidity
75925;DHT22;64604;44.752;37.674;2022-10-23T15:07:10;15.09;84.96
75925;DHT22;64604;44.752;37.674;2022-10-23T15:08:12;15.04;85.39
75925;DHT22;64604;44.752;37.674;2022-10-23T15:09:16;15.01;85.58
75925;DHT22;64604;44.752;37.674;2022-10-23T15:10:20;15.00;85.65
75925;DHT22;64604;44.752;37.674;2022-10-23T15:11:22;14.98;85.87
75925;DHT22;64604;44.752;37.674;2022-10-23T15:12:24;14.95;85.97
75925;DHT22;64604;44.752;37.674;2022-10-23T15:13:26;14.93;86.30
75925;DHT22;64604;44.752;37.674;2022-10-23T15:14:28;14.94;86.16
75925;DHT22;64604;44.752;37.674;2022-10-23T15:15:29;14.93;86.19
75925;DHT22;64604;44.752;37.674;2022-10-23T15:16:31;14.92;86.28
75925;DHT22;64604;44.752;37.674;2022-10-23T15:17:33;14.93;86.12
75925;DHT22;64604;44.752;37.674;2022-10-23T15:18:37;14.92;86.36
75925;DHT22;64604;44.752;37.674;2022-10-23T15:19:39;14.93;86.54
75925;DHT22;64604;44.752;37.674;2022-10-23T15:20:40;14.93;86.54
75925;DHT22;64604;44.752;37.674;2022-10-23T15:21:42;14.92;86.69
75925;DHT22;64604;44.752;37.674;2022-10-23T15:22:44;14.92;86.13
75925;DHT22;64604;44.752;37.674;2022-10-23T15:23:46;14.94;86.08
75925;DHT22;64604;44.752;37.674;2022-10-23T15:24:48;14.94;86.06
75925;DHT22;64604;44.752;37.674;2022-10-23T15:25:57;14.95;85.77
75925;DHT22;64604;44.752;37.674;2022-10-23T15:26:59;14.95;85.68
75925;DHT22;64604;44.752;37.674;2022-10-23T15:28:00;14.93;85.90
75925;DHT22;64604;44.752;37.674;2022-10-23T15:29:02;14.94;86.05
75925;DHT22;64604;44.752;37.674;2022-10-23T15:30:04;14.93;86.07
75925;DHT22;64604;44.752;37.674;2022-10-23T15:32:29;14.88;86.67
75925;DHT22;64604;44.752;37.674;2022-10-23T15:33:31;14.86;86.68
75925;DHT22;64604;44.752;37.674;2022-10-23T15:34:33;14.85;86.75
75925;DHT22;64604;44.752;37.674;2022-10-23T15:35:34;14.85;86.61
75925;DHT22;64604;44.752;37.674;2022-10-23T15:36:37;14.84;86.93
75925;DHT22;64604;44.752;37.674;2022-10-23T15:37:38;14.84;87.13
75925;DHT22;64604;44.752;37.674;2022-10-23T15:38:40;14.82;87.22
75925;DHT22;64604;44.752;37.674;2022-10-23T15:39:42;14.81;87.33
75925;DHT22;64604;44.752;37.674;2022-10-23T15:40:44;14.80;87.32
75925;DHT22;64604;44.752;37.674;2022-10-23T15:41:49;14.80;87.44
75925;DHT22;64604;44.752;37.674;2022-10-23T15:42:51;14.79;87.48
75925;DHT22;64604;44.752;37.674;2022-10-23T15:43:53;14.80;87.36
75925;DHT22;64604;44.752;37.674;2022-10-23T15:44:55;14.80;87.16
75925;DHT22;64604;44.752;37.674;2022-10-23T15:45:56;14.81;87.07
75925;DHT22;64604;44.752;37.674;2022-10-23T15:46:58;14.81;87.19
75925;DHT22;64604;44.752;37.674;2022-10-23T15:48:00;14.81;87.03
75925;DHT22;64604;44.752;37.674;2022-10-23T15:49:03;14.82;87.01
75925;DHT22;64604;44.752;37.674;2022-10-23T15:50:05;14.83;87.22
75925;DHT22;64604;44.752;37.674;2022-10-23T15:51:07;14.81;87.26
75925;DHT22;64604;44.752;37.674;2022-10-23T15:52:09;14.82;87.01
75925;DHT22;64604;44.752;37.674;2022-10-23T15:53:11;14.82;86.88
75925;DHT22;64604;44.752;37.674;2022-10-23T15:54:15;14.82;87.22
75925;DHT22;64604;44.752;37.674;2022-10-23T15:55:18;14.82;87.12
75925;DHT22;64604;44.752;37.674;2022-10-23T15:56:19;14.80;87.35
75925;DHT22;64604;44.752;37.674;2022-10-23T15:57:21;14.81;86.68
75925;DHT22;64604;44.752;37.674;2022-10-23T15:58:24;14.82;86.90
75925;DHT22;64604;44.752;37.674;2022-10-23T15:59:27;14.82;86.43
75925;DHT22;64604;44.752;37.674;2022-10-23T16:00:28;14.83;86.38
75925;DHT22;64604;44.752;37.674;2022-10-23T16:01:30;14.83;86.13
75925;DHT22;64604;44.752;37.674;2022-10-23T16:02:32;14.84;86.22
75925;DHT22;64604;44.752;37.674;2022-10-23T16:03:37;14.84;85.49
75925;DHT22;64604;44.752;37.674;2022-10-23T16:04:39;14.86;85.99
75925;DHT22;64604;44.752;37.674;2022-10-23T16:05:41;14.85;85.91
75925;DHT22;64604;44.752;37.674;2022-10-23T16:06:44;14.85;86.00
75925;DHT22;64604;44.752;37.674;2022-10-23T16:07:46;14.83;86.01
75925;DHT22;64604;44.752;37.674;2022-10-23T16:08:48;14.84;85.67
75925;DHT22;64604;44.752;37.674;2022-10-23T16:09:50;14.84;85.71
75925;DHT22;64604;44.752;37.674;2022-10-23T16:10:51;14.83;85.58
75925;DHT22;64604;44.752;37.674;2022-10-23T16:11:53;14.85;85.18
75925;DHT22;64604;44.752;37.674;2022-10-23T16:12:55;14.84;85.14
75925;DHT22;64604;44.752;37.674;2022-10-23T16:13:57;14.84;84.87
75925;DHT22;64604;44.752;37.674;2022-10-23T16:14:59;14.84;84.84
75925;DHT22;64604;44.752;37.674;2022-10-23T16:16:04;14.84;84.42
75925;DHT22;64604;44.752;37.674;2022-10-23T16:17:06;14.85;84.09
75925;DHT22;64604;44.752;37.674;2022-10-23T16:18:08;14.85;84.03
75925;DHT22;64604;44.752;37.674;2022-10-23T16:19:11;14.87;84.18
75925;DHT22;64604;44.752;37.674;2022-10-23T16:20:13;14.86;84.28
75925;DHT22;64604;44.752;37.674;2022-10-23T16:21:25;14.87;83.61
75925;DHT22;64604;44.752;37.674;2022-10-23T16:22:27;14.88;83.74
75925;DHT22;64604;44.752;37.674;2022-10-23T16:23:29;14.89;83.70
75925;DHT22;64604;44.752;37.674;2022-10-23T16:24:32;14.89;83.58
75925;DHT22;64604;44.752;37.674;2022-10-23T16:25:36;14.89;83.20
75925;DHT22;64604;44.752;37.674;2022-10-23T16:26:39;14.91;83.00
75925;DHT22;64604;44.752;37.674;2022-10-23T16:27:41;14.93;83.08
75925;DHT22;64604;44.752;37.674;2022-10-23T16:28:42;14.91;81.85
75925;DHT22;64604;44.752;37.674;2022-10-23T16:29:45;14.94;82.01
75925;DHT22;64604;44.752;37.674;2022-10-23T16:30:47;14.93;81.88
75925;DHT22;64604;44.752;37.674;2022-10-23T16:31:49;14.92;81.90
75925;DHT22;64604;44.752;37.674;2022-10-23T16:32:51;14.93;81.94
75925;DHT22;64604;44.752;37.674;2022-10-23T16:33:53;14.91;81.76
75925;DHT22;64604;44.752;37.674;2022-10-23T16:34:54;14.89;81.90
75925;DHT22;64604;44.752;37.674;2022-10-23T16:36:02;14.87;81.62
75925;DHT22;64604;44.752;37.674;2022-10-23T16:37:04;14.86;82.02
75925;DHT22;64604;44.752;37.674;2022-10-23T16:38:40;14.84;81.86
75925;DHT22;64604;44.752;37.674;2022-10-23T16:39:42;14.86;82.04
75925;DHT22;64604;44.752;37.674;2022-10-23T16:41:16;14.85;82.04
75925;DHT22;64604;44.752;37.674;2022-10-23T16:42:30;14.87;82.07
75925;DHT22;64604;44.752;37.674;2022-10-23T16:43:55;14.91;82.23
75925;DHT22;64604;44.752;37.674;2022-10-23T16:45:12;14.93;82.34
75925;DHT22;64604;44.752;37.674;2022-10-23T16:46:19;14.94;82.49
75925;DHT22;64604;44.752;37.674;2022-10-23T16:47:21;14.95;82.52
75925;DHT22;64604;44.752;37.674;2022-10-23T16:48:23;14.96;82.58
75925;DHT22;64604;44.752;37.674;2022-10-23T16:49:25;14.97;82.66
75925;DHT22;64604;44.752;37.674;2022-10-23T16:50:26;14.98;82.47
75925;DHT22;64604;44.752;37.674;2022-10-23T16:51:28;15.00;82.44
75925;DHT22;64604;44.752;37.674;2022-10-23T16:52:33;15.00;82.42
75925;DHT22;64604;44.752;37.674;2022-10-23T16:53:35;15.03;82.50
75925;DHT22;64604;44.752;37.674;2022-10-23T16:54:37;15.03;82.66
75925;DHT22;64604;44.752;37.674;2022-10-23T16:55:40;15.04;82.81
75925;DHT22;64604;44.752;37.674;2022-10-23T16:56:42;15.06;82.87
75925;DHT22;64604;44.752;37.674;2022-10-23T16:57:45;15.08;82.97
75925;DHT22;64604;44.752;37.674;2022-10-23T16:58:47;15.09;82.67
75925;DHT22;64604;44.752;37.674;2022-10-23T16:59:49;15.10;82.70
75925;DHT22;64604;44.752;37.674;2022-10-23T17:01:11;15.12;83.10
75925;DHT22;64604;44.752;37.674;2022-10-23T17:02:13;15.12;82.89
75925;DHT22;64604;44.752;37.674;2022-10-23T17:03:15;15.14;83.22
75925;DHT22;64604;44.752;37.674;2022-10-23T17:04:16;15.12;82.79
75925;DHT22;64604;44.752;37.674;2022-10-23T17:05:18;15.12;82.71
75925;DHT22;64604;44.752;37.674;2022-10-23T17:06:25;15.12;82.14
75925;DHT22;64604;44.752;37.674;2022-10-23T17:07:27;15.11;81.78
75925;DHT22;64604;44.752;37.674;2022-10-23T17:08:29;15.10;81.67
75925;DHT22;64604;44.752;37.674;2022-10-23T17:09:31;15.11;81.18
75925;DHT22;64604;44.752;37.674;2022-10-23T17:10:33;15.09;81.46
75925;DHT22;64604;44.752;37.674;2022-10-23T17:11:36;15.09;81.46
75925;DHT22;64604;44.752;37.674;2022-10-23T17:12:38;15.08;81.10
75925;DHT22;64604;44.752;37.674;2022-10-23T17:13:43;15.08;81.03
75925;DHT22;64604;44.752;37.674;2022-10-23T17:14:45;15.09;80.91
75925;DHT22;64604;44.752;37.674;2022-10-23T17:15:46;15.09;81.03
75925;DHT22;64604;44.752;37.674;2022-10-23T17:16:51;15.08;80.56
75925;DHT22;64604;44.752;37.674;2022-10-23T17:17:53;15.07;79.59
75925;DHT22;64604;44.752;37.674;2022-10-23T17:18:55;15.07;79.33
75925;DHT22;64604;44.752;37.674;2022-10-23T17:19:57;15.08;78.82
75925;DHT22;64604;44.752;37.674;2022-10-23T17:20:59;15.09;77.51
75925;DHT22;64604;44.752;37.674;2022-10-23T17:22:02;15.09;77.04
75925;DHT22;64604;44.752;37.674;2022-10-23T17:23:04;15.09;77.22
75925;DHT22;64604;44.752;37.674;2022-10-23T17:24:06;15.10;77.22
75925;DHT22;64604;44.752;37.674;2022-10-23T17:25:08;15.12;77.43
75925;DHT22;64604;44.752;37.674;2022-10-23T17:26:13;15.12;77.95
75925;DHT22;64604;44.752;37.674;2022-10-23T17:27:15;15.12;78.24
75925;DHT22;64604;44.752;37.674;2022-10-23T17:28:17;15.14;78.43
75925;DHT22;64604;44.752;37.674;2022-10-23T17:29:19;15.14;78.95
75925;DHT22;64604;44.752;37.674;2022-10-23T17:30:22;15.15;79.06
75925;DHT22;64604;44.752;37.674;2022-10-23T17:31:27;15.16;79.27
75925;DHT22;64604;44.752;37.674;2022-10-23T17:32:29;15.17;79.56
75925;DHT22;64604;44.752;37.674;2022-10-23T17:33:31;15.16;79.89
75925;DHT22;64604;44.752;37.674;2022-10-23T17:34:33;15.17;80.09
75925;DHT22;64604;44.752;37.674;2022-10-23T17:35:35;15.17;80.46
75925;DHT22;64604;44.752;37.674;2022-10-23T17:36:40;15.17;80.59
75925;DHT22;64604;44.752;37.674;2022-10-23T17:37:43;15.18;80.53
75925;DHT22;64604;44.752;37.674;2022-10-23T17:38:45;15.19;80.81
75925;DHT22;64604;44.752;37.674;2022-10-23T17:39:47;15.19;81.01
75925;DHT22;64604;44.752;37.674;2022-10-23T17:40:49;15.18;80.91
75925;DHT22;64604;44.752;37.674;2022-10-23T17:41:51;15.19;80.89
75925;DHT22;64604;44.752;37.674;2022-10-23T17:42:53;15.22;80.57
75925;DHT22;64604;44.752;37.674;2022-10-23T17:43:57;15.21;80.58
75925;DHT22;64604;44.752;37.674;2022-10-23T17:44:59;15.23;80.71
75925;DHT22;64604;44.752;37.674;2022-10-23T17:46:03;15.23;81.16
75925;DHT22;64604;44.752;37.674;2022-10-23T17:47:05;15.22;81.59
75925;DHT22;64604;44.752;37.674;2022-10-23T17:48:07;15.23;82.13
75925;DHT22;64604;44.752;37.674;2022-10-23T17:49:09;15.22;82.68
75925;DHT22;64604;44.752;37.674;2022-10-23T17:50:11;15.22;83.06
75925;DHT22;64604;44.752;37.674;2022-10-23T17:51:20;15.21;83.53
75925;DHT22;64604;44.752;37.674;2022-10-23T17:52:22;15.18;83.74
75925;DHT22;64604;44.752;37.674;2022-10-23T17:53:23;15.18;84.20
75925;DHT22;64604;44.752;37.674;2022-10-23T17:54:26;15.17;84.39
75925;DHT22;64604;44.752;37.674;2022-10-23T17:55:27;15.18;84.81
75925;DHT22;64604;44.752;37.674;2022-10-23T17:56:32;15.15;85.15
75925;DHT22;64604;44.752;37.674;2022-10-23T17:57:34;15.14;85.24
75925;DHT22;64604;44.752;37.674;2022-10-23T17:58:36;15.11;85.31
75925;DHT22;64604;44.752;37.674;2022-10-23T17:59:39;15.11;85.56
75925;DHT22;64604;44.752;37.674;2022-10-23T18:00:40;15.12;86.25
75925;DHT22;64604;44.752;37.674;2022-10-23T18:01:42;15.09;86.25
75925;DHT22;64604;44.752;37.674;2022-10-23T18:02:44;15.08;86.26
75925;DHT22;64604;44.752;37.674;2022-10-23T18:03:46;15.08;85.37
75925;DHT22;64604;44.752;37.674;2022-10-23T18:04:48;15.07;85.24
75925;DHT22;64604;44.752;37.674;2022-10-23T18:05:49;15.07;84.14
75925;DHT22;64604;44.752;37.674;2022-10-23T18:06:52;15.07;84.03
75925;DHT22;64604;44.752;37.674;2022-10-23T18:07:54;15.08;84.22
75925;DHT22;64604;44.752;37.674;2022-10-23T18:08:56;15.07;84.32
75925;DHT22;64604;44.752;37.674;2022-10-23T18:09:57;15.08;84.35
75925;DHT22;64604;44.752;37.674;2022-10-23T18:10:59;15.08;84.31
75925;DHT22;64604;44.752;37.674;2022-10-23T18:12:01;15.07;84.13
75925;DHT22;64604;44.752;37.674;2022-10-23T18:13:03;15.07;83.55
75925;DHT22;64604;44.752;37.674;2022-10-23T18:14:05;15.08;82.92
75925;DHT22;64604;44.752;37.674;2022-10-23T18:15:08;15.09;83.05
75925;DHT22;64604;44.752;37.674;2022-10-23T18:16:10;15.09;82.91
75925;DHT22;64604;44.752;37.674;2022-10-23T18:17:12;15.09;82.91
75925;DHT22;64604;44.752;37.674;2022-10-23T18:18:14;15.10;82.52
75925;DHT22;64604;44.752;37.674;2022-10-23T18:19:17;15.11;82.45
75925;DHT22;64604;44.752;37.674;2022-10-23T18:20:19;15.15;82.36
75925;DHT22;64604;44.752;37.674;2022-10-23T18:21:22;15.16;82.49
75925;DHT22;64604;44.752;37.674;2022-10-23T18:22:24;15.16;82.29
75925;DHT22;64604;44.752;37.674;2022-10-23T18:23:27;15.16;81.11
75925;DHT22;64604;44.752;37.674;2022-10-23T18:24:29;15.21;81.40
75925;DHT22;64604;44.752;37.674;2022-10-23T18:25:31;15.22;81.43
75925;DHT22;64604;44.752;37.674;2022-10-23T18:26:33;15.23;81.28
75925;DHT22;64604;44.752;37.674;2022-10-23T18:27:36;15.25;81.05
75925;DHT22;64604;44.752;37.674;2022-10-23T18:28:40;15.26;81.01
75925;DHT22;64604;44.752;37.674;2022-10-23T18:29:42;15.30;80.71
75925;DHT22;64604;44.752;37.674;2022-10-23T18:30:44;15.29;80.95
75925;DHT22;64604;44.752;37.674;2022-10-23T18:31:46;15.28;80.65
75925;DHT22;64604;44.752;37.674;2022-10-23T18:32:51;15.29;80.43
75925;DHT22;64604;44.752;37.674;2022-10-23T18:33:56;15.30;80.29
75925;DHT22;64604;44.752;37.674;2022-10-23T18:34:58;15.29;79.33
75925;DHT22;64604;44.752;37.674;2022-10-23T18:36:00;15.29;79.27
75925;DHT22;64604;44.752;37.674;2022-10-23T18:37:02;15.30;78.77
75925;DHT22;64604;44.752;37.674;2022-10-23T18:38:04;15.31;78.14
75925;DHT22;64604;44.752;37.674;2022-10-23T18:39:08;15.32;78.20
75925;DHT22;64604;44.752;37.674;2022-10-23T18:40:11;15.32;78.11
75925;DHT22;64604;44.752;37.674;2022-10-23T18:41:14;15.33;78.04
75925;DHT22;64604;44.752;37.674;2022-10-23T18:42:16;15.34;78.23
75925;DHT22;64604;44.752;37.674;2022-10-23T18:43:18;15.36;78.35
75925;DHT22;64604;44.752;37.674;2022-10-23T18:44:20;15.36;78.66
75925;DHT22;64604;44.752;37.674;2022-10-23T18:45:22;15.37;79.37
75925;DHT22;64604;44.752;37.674;2022-10-23T18:46:24;15.36;79.85
75925;DHT22;64604;44.752;37.674;2022-10-23T18:47:26;15.37;80.43
75925;DHT22;64604;44.752;37.674;2022-10-23T18:48:27;15.37;80.49
75925;DHT22;64604;44.752;37.674;2022-10-23T18:49:29;15.39;80.83
75925;DHT22;64604;44.752;37.674;2022-10-23T18:50:35;15.38;81.04
75925;DHT22;64604;44.752;37.674;2022-10-23T18:51:37;15.38;81.36
75925;DHT22;64604;44.752;37.674;2022-10-23T18:52:39;15.38;81.24
75925;DHT22;64604;44.752;37.674;2022-10-23T18:53:42;15.37;80.64
75925;DHT22;64604;44.752;37.674;2022-10-23T18:54:46;15.38;80.01
75925;DHT22;64604;44.752;37.674;2022-10-23T18:55:48;15.38;79.65
75925;DHT22;64604;44.752;37.674;2022-10-23T18:56:50;15.38;79.46
75925;DHT22;64604;44.752;37.674;2022-10-23T18:57:52;15.39;79.01
75925;DHT22;64604;44.752;37.674;2022-10-23T18:58:57;15.38;78.18
75925;DHT22;64604;44.752;37.674;2022-10-23T18:59:59;15.39;77.99
75925;DHT22;64604;44.752;37.674;2022-10-23T19:01:02;15.41;78.15
75925;DHT22;64604;44.752;37.674;2022-10-23T19:02:04;15.41;78.11
75925;DHT22;64604;44.752;37.674;2022-10-23T19:03:06;15.39;78.34
75925;DHT22;64604;44.752;37.674;2022-10-23T19:04:09;15.39;78.49
75925;DHT22;64604;44.752;37.674;2022-10-23T19:05:13;15.38;78.70
75925;DHT22;64604;44.752;37.674;2022-10-23T19:06:16;15.39;78.66
75925;DHT22;64604;44.752;37.674;2022-10-23T19:07:18;15.38;78.85
75925;DHT22;64604;44.752;37.674;2022-10-23T19:08:19;15.36;78.75
75925;DHT22;64604;44.752;37.674;2022-10-23T19:09:22;15.37;78.48
75925;DHT22;64604;44.752;37.674;2022-10-23T19:10:26;15.39;78.42
75925;DHT22;64604;44.752;37.674;2022-10-23T19:11:29;15.38;78.47
75925;DHT22;64604;44.752;37.674;2022-10-23T19:12:31;15.37;78.24
75925;DHT22;64604;44.752;37.674;2022-10-23T19:13:34;15.38;78.30
75925;DHT22;64604;44.752;37.674;2022-10-23T19:14:38;15.37;78.34
75925;DHT22;64604;44.752;37.674;2022-10-23T19:15:39;15.37;78.04
75925;DHT22;64604;44.752;37.674;2022-10-23T19:17:02;15.39;78.18
75925;DHT22;64604;44.752;37.674;2022-10-23T19:18:06;15.39;78.11
75925;DHT22;64604;44.752;37.674;2022-10-23T19:20:14;15.41;78.07
75925;DHT22;64604;44.752;37.674;2022-10-23T19:21:18;15.40;78.07
75925;DHT22;64604;44.752;37.674;2022-10-23T19:22:21;15.41;78.27
75925;DHT22;64604;44.752;37.674;2022-10-23T19:23:23;15.40;78.37
75925;DHT22;64604;44.752;37.674;2022-10-23T19:24:35;15.40;78.61
75925;DHT22;64604;44.752;37.674;2022-10-23T19:25:38;15.40;78.83
75925;DHT22;64604;44.752;37.674;2022-10-23T19:26:41;15.42;78.97
75925;DHT22;64604;44.752;37.674;2022-10-23T19:27:44;15.41;79.14
75925;DHT22;64604;44.752;37.674;2022-10-23T19:28:46;15.42;79.21
75925;DHT22;64604;44.752;37.674;2022-10-23T19:29:50;15.42;79.32
75925;DHT22;64604;44.752;37.674;2022-10-23T19:30:52;15.43;79.24
75925;DHT22;64604;44.752;37.674;2022-10-23T19:31:54;15.45;79.40
75925;DHT22;64604;44.752;37.674;2022-10-23T19:32:56;15.44;79.35
75925;DHT22;64604;44.752;37.674;2022-10-23T19:33:57;15.45;79.30
75925;DHT22;64604;44.752;37.674;2022-10-23T19:34:59;15.47;79.14
75925;DHT22;64604;44.752;37.674;2022-10-23T19:36:02;15.47;79.10
75925;DHT22;64604;44.752;37.674;2022-10-23T19:37:03;15.47;79.11
75925;DHT22;64604;44.752;37.674;2022-10-23T19:38:05;15.49;79.17
75925;DHT22;64604;44.752;37.674;2022-10-23T19:39:07;15.47;78.76
75925;DHT22;64604;44.752;37.674;2022-10-23T19:40:09;15.49;78.84
75925;DHT22;64604;44.752;37.674;2022-10-23T19:41:11;15.52;78.68
75925;DHT22;64604;44.752;37.674;2022-10-23T19:42:13;15.51;78.63
75925;DHT22;64604;44.752;37.674;2022-10-23T19:43:15;15.52;78.66
75925;DHT22;64604;44.752;37.674;2022-10-23T19:44:17;15.51;78.64
75925;DHT22;64604;44.752;37.674;2022-10-23T19:45:19;15.51;78.37
75925;DHT22;64604;44.752;37.674;2022-10-23T19:46:20;15.51;78.04
75925;DHT22;64604;44.752;37.674;2022-10-23T19:47:22;15.52;77.90
75925;DHT22;64604;44.752;37.674;2022-10-23T19:48:24;15.52;77.92
75925;DHT22;64604;44.752;37.674;2022-10-23T19:49:25;15.54;77.89
75925;DHT22;64604;44.752;37.674;2022-10-23T19:50:27;15.53;77.66
75925;DHT22;64604;44.752;37.674;2022-10-23T19:51:29;15.52;77.79
75925;DHT22;64604;44.752;37.674;2022-10-23T19:52:31;15.53;77.75
75925;DHT22;64604;44.752;37.674;2022-10-23T19:53:34;15.52;77.74
75925;DHT22;64604;44.752;37.674;2022-10-23T19:54:36;15.53;77.56
75925;DHT22;64604;44.752;37.674;2022-10-23T19:55:40;15.54;77.80
75925;DHT22;64604;44.752;37.674;2022-10-23T19:56:42;15.52;77.62
75925;DHT22;64604;44.752;37.674;2022-10-23T19:57:43;15.53;77.54
75925;DHT22;64604;44.752;37.674;2022-10-23T19:58:45;15.53;77.63
75925;DHT22;64604;44.752;37.674;2022-10-23T19:59:48;15.54;77.29
75925;DHT22;64604;44.752;37.674;2022-10-23T20:00:50;15.54;77.29
75925;DHT22;64604;44.752;37.674;2022-10-23T20:01:52;15.56;77.14
75925;DHT22;64604;44.752;37.674;2022-10-23T20:02:54;15.57;76.83
75925;DHT22;64604;44.752;37.674;2022-10-23T20:03:56;15.56;76.71
75925;DHT22;64604;44.752;37.674;2022-10-23T20:04:58;15.57;76.59
75925;DHT22;64604;44.752;37.674;2022-10-23T20:06:00;15.56;76.57
75925;DHT22;64604;44.752;37.674;2022-10-23T20:07:01;15.58;76.47
75925;DHT22;64604;44.752;37.674;2022-10-23T20:08:03;15.58;76.45
75925;DHT22;64604;44.752;37.674;2022-10-23T20:09:06;15.59;76.53
75925;DHT22;64604;44.752;37.674;2022-10-23T20:10:10;15.59;76.57
75925;DHT22;64604;44.752;37.674;2022-10-23T20:11:16;15.59;76.33
75925;DHT22;64604;44.752;37.674;2022-10-23T20:12:19;15.58;76.50
75925;DHT22;64604;44.752;37.674;2022-10-23T20:13:20;15.58;76.52
75925;DHT22;64604;44.752;37.674;2022-10-23T20:14:22;15.59;76.84
75925;DHT22;64604;44.752;37.674;2022-10-23T20:15:24;15.59;76.92
75925;DHT22;64604;44.752;37.674;2022-10-23T20:16:31;15.62;76.90
75925;DHT22;64604;44.752;37.674;2022-10-23T20:17:33;15.62;77.18
75925;DHT22;64604;44.752;37.674;2022-10-23T20:18:35;15.61;77.63
75925;DHT22;64604;44.752;37.674;2022-10-23T20:19:37;15.63;77.93
75925;DHT22;64604;44.752;37.674;2022-10-23T20:20:40;15.58;78.29
75925;DHT22;64604;44.752;37.674;2022-10-23T20:21:45;15.57;78.69
75925;DHT22;64604;44.752;37.674;2022-10-23T20:22:47;15.54;79.09
75925;DHT22;64604;44.752;37.674;2022-10-23T20:23:49;15.53;79.09
75925;DHT22;64604;44.752;37.674;2022-10-23T20:24:51;15.49;79.55
75925;DHT22;64604;44.752;37.674;2022-10-23T20:25:53;15.48;79.66
75925;DHT22;64604;44.752;37.674;2022-10-23T20:26:55;15.47;79.95
75925;DHT22;64604;44.752;37.674;2022-10-23T20:27:57;15.44;79.91
75925;DHT22;64604;44.752;37.674;2022-10-23T20:28:59;15.42;79.53
75925;DHT22;64604;44.752;37.674;2022-10-23T20:30:00;15.43;79.66
75925;DHT22;64604;44.752;37.674;2022-10-23T20:31:09;15.43;79.44
75925;DHT22;64604;44.752;37.674;2022-10-23T20:32:11;15.42;79.53
75925;DHT22;64604;44.752;37.674;2022-10-23T20:33:13;15.42;79.33
75925;DHT22;64604;44.752;37.674;2022-10-23T20:34:15;15.41;79.91
75925;DHT22;64604;44.752;37.674;2022-10-23T20:35:17;15.38;80.61
75925;DHT22;64604;44.752;37.674;2022-10-23T20:36:25;15.32;81.29
75925;DHT22;64604;44.752;37.674;2022-10-23T20:37:27;15.28;82.27
75925;DHT22;64604;44.752;37.674;2022-10-23T20:38:29;15.19;83.26
75925;DHT22;64604;44.752;37.674;2022-10-23T20:39:31;15.13;84.17
75925;DHT22;64604;44.752;37.674;2022-10-23T20:40:36;15.04;84.64
75925;DHT22;64604;44.752;37.674;2022-10-23T20:41:39;15.01;85.01
75925;DHT22;64604;44.752;37.674;2022-10-23T20:42:40;14.94;85.41
75925;DHT22;64604;44.752;37.674;2022-10-23T20:43:42;14.87;86.24
75925;DHT22;64604;44.752;37.674;2022-10-23T20:44:44;14.80;86.43
75925;DHT22;64604;44.752;37.674;2022-10-23T20:45:46;14.75;87.22
75925;DHT22;64604;44.752;37.674;2022-10-23T20:46:48;14.73;87.33
75925;DHT22;64604;44.752;37.674;2022-10-23T20:47:50;14.73;87.52
75925;DHT22;64604;44.752;37.674;2022-10-23T20:48:52;14.71;87.63
75925;DHT22;64604;44.752;37.674;2022-10-23T20:49:54;14.72;87.70
75925;DHT22;64604;44.752;37.674;2022-10-23T20:51:01;14.74;88.28
75925;DHT22;64604;44.752;37.674;2022-10-23T20:52:03;14.73;88.15
75925;DHT22;64604;44.752;37.674;2022-10-23T20:53:05;14.75;88.11
75925;DHT22;64604;44.752;37.674;2022-10-23T20:54:06;14.75;88.26
75925;DHT22;64604;44.752;37.674;2022-10-23T20:55:08;14.78;88.59
75925;DHT22;64604;44.752;37.674;2022-10-23T20:56:19;14.75;89.61
75925;DHT22;64604;44.752;37.674;2022-10-23T20:57:20;14.71;90.44
75925;DHT22;64604;44.752;37.674;2022-10-23T20:58:22;14.66;91.09
75925;DHT22;64604;44.752;37.674;2022-10-23T20:59:24;14.54;92.34
75925;DHT22;64604;44.752;37.674;2022-10-23T21:00:26;14.34;93.82
75925;DHT22;64604;44.752;37.674;2022-10-23T21:01:28;14.19;94.87
75925;DHT22;64604;44.752;37.674;2022-10-23T21:02:30;14.07;94.74
75925;DHT22;64604;44.752;37.674;2022-10-23T21:03:34;13.94;95.34
75925;DHT22;64604;44.752;37.674;2022-10-23T21:04:35;13.85;95.87
75925;DHT22;64604;44.752;37.674;2022-10-23T21:05:37;13.75;96.53
75925;DHT22;64604;44.752;37.674;2022-10-23T21:06:40;13.62;95.90
75925;DHT22;64604;44.752;37.674;2022-10-23T21:07:43;13.52;96.34
75925;DHT22;64604;44.752;37.674;2022-10-23T21:08:45;13.34;94.78
75925;DHT22;64604;44.752;37.674;2022-10-23T21:09:46;13.20;95.27
75925;DHT22;64604;44.752;37.674;2022-10-23T21:10:48;13.08;95.84
75925;DHT22;64604;44.752;37.674;2022-10-23T21:11:50;12.97;96.27
75925;DHT22;64604;44.752;37.674;2022-10-23T21:12:51;12.87;96.48
75925;DHT22;64604;44.752;37.674;2022-10-23T21:13:53;12.78;97.01
75925;DHT22;64604;44.752;37.674;2022-10-23T21:14:57;12.72;97.65
75925;DHT22;64604;44.752;37.674;2022-10-23T21:15:59;12.63;97.71
75925;DHT22;64604;44.752;37.674;2022-10-23T21:17:00;12.56;98.12
75925;DHT22;64604;44.752;37.674;2022-10-23T21:18:02;12.50;98.47
75925;DHT22;64604;44.752;37.674;2022-10-23T21:19:04;12.47;99.03
75925;DHT22;64604;44.752;37.674;2022-10-23T21:20:07;12.42;98.97
75925;DHT22;64604;44.752;37.674;2022-10-23T21:21:09;12.34;99.03
75925;DHT22;64604;44.752;37.674;2022-10-23T21:22:11;12.29;98.80
75925;DHT22;64604;44.752;37.674;2022-10-23T21:23:12;12.25;98.75
75925;DHT22;64604;44.752;37.674;2022-10-23T21:24:16;12.21;99.08
75925;DHT22;64604;44.752;37.674;2022-10-23T21:25:17;12.19;99.36
75925;DHT22;64604;44.752;37.674;2022-10-23T21:26:21;12.15;99.50
75925;DHT22;64604;44.752;37.674;2022-10-23T21:27:23;12.13;99.74
75925;DHT22;64604;44.752;37.674;2022-10-23T21:28:25;12.12;99.89
75925;DHT22;64604;44.752;37.674;2022-10-23T21:29:26;12.06;99.58
75925;DHT22;64604;44.752;37.674;2022-10-23T21:30:28;12.06;99.81
75925;DHT22;64604;44.752;37.674;2022-10-23T21:31:30;12.06;99.93
75925;DHT22;64604;44.752;37.674;2022-10-23T21:32:31;12.04;99.93
75925;DHT22;64604;44.752;37.674;2022-10-23T21:33:34;12.02;100.10
75925;DHT22;64604;44.752;37.674;2022-10-23T21:34:36;12.01;100.19
75925;DHT22;64604;44.752;37.674;2022-10-23T21:35:38;11.98;100.19
75925;DHT22;64604;44.752;37.674;2022-10-23T21:36:40;12.00;100.28
75925;DHT22;64604;44.752;37.674;2022-10-23T21:37:46;11.97;100.31
75925;DHT22;64604;44.752;37.674;2022-10-23T21:38:51;11.94;100.35
75925;DHT22;64604;44.752;37.674;2022-10-23T21:39:53;11.92;100.19